Ahwaz, Iran
Current Conditions -  °F | °C
As of 4:00 PM on Tuesday 21 Oct 2014 (Local Time) from OIAW Reporting Station
Few Clouds Few Clouds  
Wind Chill: 79°   Ceiling: Unl
Heat Index: 80°   Visibility: 6mi
Dew Point: 57°   Wind: 5mph
Humidity: 47%   Direction: 310°NW
Pressure: 29.88"   Gusts: NA
Location:  31.34°N, 48.76°E
Report Text: OIAW 211200Z 31004KT 9999 FEW040 26/14 Q1012
Loading
Personal Weather Stations






























Interactive Weather Map
Tropical Storm Tracking
New forecast layout! Learn more

10-Day Weather Forecast

Advertisements
Track Severe Weather on mobile